Oakland, Louisiana
Current Conditions -  °F | °C
As of 1:35 PM on Thursday 27 Nov 2014 (Local Time) from KBQP Reporting Station
Clear Clear  
Wind Chill: 52°   Ceiling: Unl
Heat Index: 52°   Visibility: 10mi
Dew Point: 29°   Wind: 6mph
Humidity: 41%   Direction: 60°ENE
Pressure: 30.48"   Gusts: NA
Location:  32.906°N, 92.243°W
Report Text: KBQP 271935Z AUTO 06005KT 10SM CLR 11/M01 A3048 RMK AO2 T01121015
Loading
Personal Weather Stations






























Interactive Weather Map New forecast layout! Learn more

10-Day Weather Forecast

Advertisements
Track Severe Weather on mobile